Time;durP1;ratioP1;P1;durP2;ratioP2;P2;SDS_P1;SDS_P2;PMS_P1;PMS_P2;Temp;Humidity;BMP_temperature;BMP_pressure;BME280_temperature;BME280_humidity;BME280_pressure;Samples;Min_cycle;Max_cycle;Signal;HPM_P1;HPM_P2
2023/01/23 00:00:26;;;;;;;52.15;20.95;;;2.40;99.90;;;;;;5072114;28;20096;-40
2023/01/23 00:02:52;;;;;;;50.05;22.15;;;2.40;99.90;;;;;;5071206;28;20103;-40
2023/01/23 00:05:17;;;;;;;49.35;22.23;;;2.40;99.90;;;;;;5071319;28;20096;-40
2023/01/23 00:07:43;;;;;;;56.55;23.17;;;2.40;99.90;;;;;;5071984;28;20045;-40
2023/01/23 00:10:09;;;;;;;54.55;22.45;;;2.40;99.90;;;;;;5071853;28;20049;-42
2023/01/23 00:12:35;;;;;;;52.30;20.80;;;2.40;99.90;;;;;;5071453;28;20096;-41
2023/01/23 00:15:01;;;;;;;53.03;23.00;;;2.40;99.90;;;;;;5069612;28;20031;-41
2023/01/23 00:17:26;;;;;;;71.05;23.52;;;2.40;99.90;;;;;;5063309;28;20037;-41
2023/01/23 00:19:53;;;;;;;64.45;22.83;;;2.40;99.90;;;;;;5071914;28;20024;-41
2023/01/23 00:22:19;;;;;;;70.15;24.52;;;2.40;99.90;;;;;;5071232;28;20027;-53
2023/01/23 00:24:44;;;;;;;55.22;21.60;;;2.40;99.90;;;;;;5070978;28;20028;-52
2023/01/23 00:27:10;;;;;;;68.97;24.52;;;2.40;99.90;;;;;;5071234;28;20028;-51
2023/01/23 00:29:35;;;;;;;64.43;24.42;;;2.40;99.90;;;;;;5071569;28;20548;-52
2023/01/23 00:32:01;;;;;;;66.10;25.83;;;2.50;99.90;;;;;;5071389;28;20044;-53
2023/01/23 00:34:26;;;;;;;56.35;23.90;;;2.50;99.90;;;;;;5071143;28;20029;-51
2023/01/23 00:36:52;;;;;;;68.47;24.52;;;2.50;99.90;;;;;;5069353;28;20067;-50
2023/01/23 00:39:20;;;;;;;64.65;24.98;;;2.50;99.90;;;;;;5071062;28;20017;-50
2023/01/23 00:41:47;;;;;;;59.47;22.98;;;2.50;99.90;;;;;;5070847;28;20052;-52
2023/01/23 00:44:14;;;;;;;57.65;22.48;;;2.50;99.90;;;;;;5068760;28;20028;-51
2023/01/23 00:46:39;;;;;;;61.78;24.48;;;2.50;99.90;;;;;;5061041;28;20024;-51
2023/01/23 00:49:05;;;;;;;66.40;26.13;;;2.50;99.90;;;;;;5069935;28;20081;-50
2023/01/23 00:51:31;;;;;;;66.25;25.90;;;2.50;99.90;;;;;;5070737;28;20032;-52
2023/01/23 00:53:57;;;;;;;68.18;26.13;;;2.40;99.90;;;;;;5071016;28;20023;-50
2023/01/23 00:56:23;;;;;;;68.63;25.27;;;2.40;99.90;;;;;;5070607;28;20039;-53
2023/01/23 00:58:48;;;;;;;72.43;24.20;;;2.50;99.90;;;;;;5070581;28;20037;-50
2023/01/23 01:01:15;;;;;;;69.82;25.67;;;2.50;99.90;;;;;;5070945;28;20035;-52
2023/01/23 01:03:41;;;;;;;58.47;22.08;;;2.50;99.90;;;;;;5070729;28;20547;-52
2023/01/23 01:06:07;;;;;;;63.17;24.42;;;2.50;99.90;;;;;;5070504;28;20017;-53
2023/01/23 01:08:33;;;;;;;71.72;24.73;;;2.50;99.90;;;;;;5071002;28;20025;-53
2023/01/23 01:10:58;;;;;;;62.17;24.45;;;2.50;99.90;;;;;;5070537;28;20101;-50
2023/01/23 01:13:24;;;;;;;58.08;24.73;;;2.60;99.90;;;;;;5069976;28;20509;-50
2023/01/23 01:15:51;;;;;;;68.13;24.75;;;2.50;99.90;;;;;;5062158;28;20078;-51
2023/01/23 01:18:18;;;;;;;57.75;22.52;;;2.60;99.90;;;;;;5051989;28;20025;-50
2023/01/23 01:20:44;;;;;;;61.33;24.23;;;2.50;99.90;;;;;;5050797;28;20067;-50
2023/01/23 01:23:11;;;;;;;58.92;24.30;;;2.60;99.90;;;;;;5050704;28;20029;-50
2023/01/23 01:25:37;;;;;;;63.97;23.95;;;2.50;99.90;;;;;;5050029;28;20052;-51
2023/01/23 01:28:03;;;;;;;61.53;24.40;;;2.60;99.90;;;;;;5050229;28;20052;-53
2023/01/23 01:30:29;;;;;;;60.97;23.73;;;2.60;99.90;;;;;;5050941;28;20099;-50
2023/01/23 01:32:55;;;;;;;59.08;24.58;;;2.60;99.90;;;;;;5050325;28;20167;-51
2023/01/23 01:35:21;;;;;;;56.92;23.85;;;2.60;99.90;;;;;;5049856;28;20031;-54
2023/01/23 01:37:48;;;;;;;62.17;23.98;;;2.60;99.90;;;;;;5049914;28;20580;-52
2023/01/23 01:40:17;;;;;;;58.75;22.65;;;2.60;99.90;;;;;;5050203;28;20053;-53
2023/01/23 01:42:46;;;;;;;54.90;25.45;;;2.60;99.90;;;;;;5049483;28;20099;-51
2023/01/23 01:45:49;;;;;;;70.43;26.30;;;2.60;99.90;;;;;;5056919;28;20033;-54
2023/01/23 01:48:15;;;;;;;64.38;25.65;;;2.60;99.90;;;;;;5063929;28;20102;-51
2023/01/23 01:50:41;;;;;;;55.05;23.13;;;2.70;99.90;;;;;;5069971;28;20037;-53
2023/01/23 01:53:06;;;;;;;59.33;25.17;;;2.60;99.90;;;;;;5069568;28;20036;-53
2023/01/23 01:55:32;;;;;;;63.38;24.00;;;2.60;99.90;;;;;;5069089;28;20245;-53
2023/01/23 01:57:59;;;;;;;58.17;23.65;;;2.60;99.90;;;;;;5067834;28;20479;-53
2023/01/23 02:00:25;;;;;;;52.83;22.17;;;2.60;99.90;;;;;;5069444;28;20397;-53
2023/01/23 02:02:54;;;;;;;60.33;23.42;;;2.60;99.90;;;;;;5069346;28;20025;-52
2023/01/23 02:05:23;;;;;;;65.22;24.42;;;2.60;99.90;;;;;;5068905;28;20028;-54
2023/01/23 02:08:07;;;;;;;52.08;22.27;;;2.60;99.90;;;;;;5069648;28;20093;-52
2023/01/23 02:10:35;;;;;;;53.75;23.73;;;2.60;99.90;;;;;;5069823;28;20033;-52
2023/01/23 02:13:29;;;;;;;41.40;20.85;;;2.60;99.90;;;;;;5068208;28;20438;-53
2023/01/23 02:15:56;;;;;;;58.58;22.60;;;2.60;99.90;;;;;;5061596;28;20378;-54
2023/01/23 02:18:22;;;;;;;54.95;21.77;;;2.60;99.90;;;;;;5066925;28;20024;-53
2023/01/23 02:20:49;;;;;;;58.60;23.85;;;2.60;99.90;;;;;;5069067;28;20017;-53
2023/01/23 02:23:44;;;;;;;52.53;21.70;;;2.70;99.90;;;;;;5068942;28;20028;-51
2023/01/23 02:26:17;;;;;;;53.95;22.73;;;2.60;99.90;;;;;;5068187;28;20504;-51
2023/01/23 02:28:46;;;;;;;55.00;23.83;;;2.60;99.90;;;;;;5068772;28;20063;-51
2023/01/23 02:31:13;;;;;;;60.25;24.77;;;2.60;99.90;;;;;;5067574;28;20024;-40
2023/01/23 02:33:38;;;;;;;60.08;24.20;;;2.60;99.90;;;;;;5069163;28;20504;-41
2023/01/23 02:36:07;;;;;;;62.53;24.08;;;2.60;99.90;;;;;;5068554;28;20150;-40
2023/01/23 02:38:36;;;;;;;55.08;24.30;;;2.60;99.90;;;;;;5068896;28;20016;-40
2023/01/23 02:41:04;;;;;;;51.03;22.88;;;2.60;99.90;;;;;;5068556;28;20031;-40
2023/01/23 02:43:34;;;;;;;56.10;24.35;;;2.60;99.90;;;;;;5068432;28;20397;-40
2023/01/23 02:46:09;;;;;;;56.13;24.55;;;2.60;99.90;;;;;;5059693;28;20100;-39
2023/01/23 02:48:38;;;;;;;54.08;24.38;;;2.60;99.90;;;;;;5068574;28;20030;-40
2023/01/23 02:51:05;;;;;;;56.45;23.83;;;2.60;99.90;;;;;;5068631;28;20037;-40
2023/01/23 02:53:30;;;;;;;55.53;22.10;;;2.60;99.90;;;;;;5068469;28;20032;-40
2023/01/23 02:55:57;;;;;;;53.83;22.42;;;2.60;99.90;;;;;;5068240;28;20021;-40
2023/01/23 03:01:08;;;;;;;64.68;24.75;;;2.50;99.90;;;;;;5069092;28;20035;-40
2023/01/23 03:03:34;;;;;;;60.22;22.83;;;2.50;99.90;;;;;;5068610;28;20055;-41
2023/01/23 03:06:02;;;;;;;51.22;23.80;;;2.50;99.90;;;;;;5067791;28;20056;-40
2023/01/23 03:08:33;;;;;;;51.75;24.45;;;2.50;99.90;;;;;;5068892;28;20090;-40
2023/01/23 03:11:00;;;;;;;54.83;24.92;;;2.50;99.90;;;;;;5067296;28;20123;-40
2023/01/23 03:13:25;;;;;;;61.67;22.88;;;2.50;99.90;;;;;;5067974;28;20039;-40
2023/01/23 03:15:56;;;;;;;52.88;23.88;;;2.50;99.90;;;;;;5061859;28;20021;-40
2023/01/23 03:18:22;;;;;;;57.67;22.08;;;2.50;99.90;;;;;;5066262;28;20020;-40
2023/01/23 03:20:48;;;;;;;52.45;22.88;;;2.50;99.90;;;;;;5068498;28;20037;-40
2023/01/23 03:23:13;;;;;;;52.55;22.25;;;2.50;99.90;;;;;;5068124;28;20028;-40
2023/01/23 03:25:43;;;;;;;54.92;22.67;;;2.50;99.90;;;;;;5066573;28;20033;-40
2023/01/23 03:30:11;;;;;;;45.73;21.00;;;2.50;99.90;;;;;;5068131;28;20103;-40
2023/01/23 03:30:54;;;;;;;38.08;19.35;;;2.50;99.90;;;;;;5066562;28;20290;-40
2023/01/23 03:33:20;;;;;;;53.42;22.13;;;2.50;99.90;;;;;;5068251;28;20470;-41
2023/01/23 03:35:45;;;;;;;59.70;24.92;;;2.50;99.90;;;;;;5068082;28;20017;-40
2023/01/23 03:38:11;;;;;;;54.55;23.63;;;2.50;99.90;;;;;;5068287;28;20150;-40
2023/01/23 03:43:20;;;;;;;54.47;24.55;;;2.50;99.90;;;;;;5067904;28;20108;-40
2023/01/23 03:45:46;;;;;;;53.03;21.83;;;2.50;99.90;;;;;;5062044;28;20498;-40
2023/01/23 03:48:11;;;;;;;52.22;21.33;;;2.50;99.90;;;;;;5064847;28;20253;-41
2023/01/23 03:50:37;;;;;;;50.10;21.83;;;2.50;99.90;;;;;;5068069;28;20090;-40
2023/01/23 03:53:02;;;;;;;50.58;21.13;;;2.50;99.90;;;;;;5067434;28;20028;-40
2023/01/23 03:55:28;;;;;;;52.08;23.48;;;2.50;99.90;;;;;;5067469;28;20111;-41
2023/01/23 03:57:53;;;;;;;47.60;20.23;;;2.50;99.90;;;;;;5067598;28;20063;-40
2023/01/23 04:00:19;;;;;;;49.78;21.98;;;2.50;99.90;;;;;;5068213;28;20039;-40
2023/01/23 04:02:44;;;;;;;46.28;20.95;;;2.50;99.90;;;;;;5051968;28;20035;-50
2023/01/23 04:05:10;;;;;;;49.67;21.38;;;2.50;99.90;;;;;;5037606;28;20056;-40
2023/01/23 04:07:35;;;;;;;44.13;19.92;;;2.50;99.90;;;;;;5037877;28;20033;-52
2023/01/23 04:10:01;;;;;;;50.05;21.80;;;2.50;99.90;;;;;;5036614;28;20030;-40
2023/01/23 04:12:27;;;;;;;53.08;21.90;;;2.50;99.90;;;;;;5037585;28;20465;-49
2023/01/23 04:14:52;;;;;;;51.72;21.45;;;2.50;99.90;;;;;;5039241;28;20064;-50
2023/01/23 04:17:18;;;;;;;46.90;22.15;;;2.50;99.90;;;;;;5043037;28;20021;-51
2023/01/23 04:19:43;;;;;;;53.33;22.65;;;2.50;99.90;;;;;;5036348;28;20017;-52
2023/01/23 04:22:09;;;;;;;50.72;22.67;;;2.60;99.90;;;;;;5036559;28;20013;-50
2023/01/23 04:24:35;;;;;;;68.82;26.98;;;2.60;99.90;;;;;;5038625;28;20112;-50
2023/01/23 04:27:00;;;;;;;57.55;24.85;;;2.60;99.90;;;;;;5040212;28;20021;-51
2023/01/23 04:29:26;;;;;;;59.15;24.50;;;2.60;99.90;;;;;;5041918;28;20021;-49
2023/01/23 04:31:51;;;;;;;62.33;22.70;;;2.60;99.90;;;;;;5040748;28;20029;-49
2023/01/23 04:34:17;;;;;;;56.90;23.73;;;2.60;99.90;;;;;;5040534;28;20142;-48
2023/01/23 04:36:42;;;;;;;58.78;25.00;;;2.50;99.90;;;;;;5040376;28;20021;-49
2023/01/23 04:39:08;;;;;;;60.65;23.95;;;2.50;99.90;;;;;;5040104;28;20391;-51
2023/01/23 04:41:34;;;;;;;60.72;23.20;;;2.50;99.90;;;;;;5041280;28;20108;-50
2023/01/23 04:44:18;;;;;;;53.58;21.95;;;2.50;99.90;;;;;;5041129;28;20365;-51
2023/01/23 04:46:48;;;;;;;51.63;21.58;;;2.50;99.90;;;;;;5045328;28;20025;-50
2023/01/23 04:49:14;;;;;;;47.28;22.15;;;2.50;99.90;;;;;;5039203;28;20021;-49
2023/01/23 04:51:40;;;;;;;47.78;21.65;;;2.50;99.90;;;;;;5041740;28;20211;-49
2023/01/23 04:54:05;;;;;;;49.63;22.05;;;2.50;99.90;;;;;;5038849;28;20108;-52
2023/01/23 04:56:31;;;;;;;50.22;20.20;;;2.50;99.90;;;;;;5030270;28;20400;-49
2023/01/23 04:58:57;;;;;;;45.92;20.70;;;2.50;99.90;;;;;;5037029;28;20395;-49
2023/01/23 05:01:22;;;;;;;41.75;19.23;;;2.40;99.90;;;;;;5030703;28;20406;-50
2023/01/23 05:03:52;;;;;;;41.65;19.20;;;2.40;99.90;;;;;;5029337;28;20040;-51
2023/01/23 05:06:18;;;;;;;45.20;20.37;;;2.40;99.90;;;;;;5030700;28;20114;-49
2023/01/23 05:08:44;;;;;;;41.95;20.13;;;2.40;99.90;;;;;;5031346;28;20029;-49
2023/01/23 05:11:10;;;;;;;39.88;18.17;;;2.40;99.90;;;;;;5030643;28;20051;-50
2023/01/23 05:13:36;;;;;;;42.97;19.60;;;2.40;99.90;;;;;;5030194;28;20105;-52
2023/01/23 05:16:01;;;;;;;34.63;17.98;;;2.40;99.90;;;;;;5053201;28;20025;-49
2023/01/23 05:18:28;;;;;;;34.22;18.35;;;2.30;99.90;;;;;;5068902;28;20031;-52
2023/01/23 05:20:54;;;;;;;36.45;18.90;;;2.30;99.90;;;;;;5070684;28;20023;-49
2023/01/23 05:23:19;;;;;;;41.75;19.48;;;2.30;99.90;;;;;;5070213;28;20024;-53
2023/01/23 05:25:45;;;;;;;39.92;18.92;;;2.30;99.90;;;;;;5069936;28;20067;-50
2023/01/23 05:28:10;;;;;;;42.75;19.00;;;2.40;99.90;;;;;;5068905;28;20025;-49
2023/01/23 05:30:36;;;;;;;38.50;18.10;;;2.30;99.90;;;;;;5069178;28;20025;-51
2023/01/23 05:33:02;;;;;;;37.22;18.75;;;2.30;99.90;;;;;;5070322;28;20056;-52
2023/01/23 05:35:27;;;;;;;36.55;18.75;;;2.40;99.90;;;;;;5046361;28;20017;-53
2023/01/23 05:37:53;;;;;;;35.97;18.83;;;2.40;99.90;;;;;;5040820;28;20521;-52
2023/01/23 05:40:20;;;;;;;36.78;18.45;;;2.30;99.90;;;;;;5038986;28;20463;-50
2023/01/23 05:42:46;;;;;;;35.88;17.15;;;2.30;99.90;;;;;;5039682;28;20024;-51
2023/01/23 05:45:12;;;;;;;40.50;19.50;;;2.20;99.90;;;;;;5045537;28;20052;-51
2023/01/23 05:47:38;;;;;;;35.22;16.95;;;2.20;99.90;;;;;;5042948;28;20021;-50
2023/01/23 05:50:05;;;;;;;42.95;20.35;;;2.20;99.90;;;;;;5043246;28;20056;-49
2023/01/23 05:52:30;;;;;;;40.00;18.58;;;2.20;99.90;;;;;;5043684;28;20116;-51
2023/01/23 05:54:56;;;;;;;47.35;20.33;;;2.20;99.90;;;;;;5042223;28;20476;-51
2023/01/23 05:57:22;;;;;;;35.78;17.77;;;2.30;99.90;;;;;;5044006;28;20021;-51
2023/01/23 05:59:47;;;;;;;41.58;19.05;;;2.20;99.90;;;;;;5041809;28;20022;-52
2023/01/23 06:02:13;;;;;;;37.40;19.10;;;2.20;99.90;;;;;;5042300;28;20029;-50
2023/01/23 06:04:38;;;;;;;40.05;19.30;;;2.20;99.90;;;;;;5046813;28;20021;-50
2023/01/23 06:07:04;;;;;;;36.72;18.10;;;2.20;99.90;;;;;;5041097;28;20648;-41
2023/01/23 06:09:30;;;;;;;44.95;19.88;;;2.20;99.90;;;;;;5043233;28;20456;-41
2023/01/23 06:11:55;;;;;;;43.28;20.65;;;2.30;99.90;;;;;;5047856;28;20028;-42
2023/01/23 06:14:21;;;;;;;39.33;19.75;;;2.30;99.90;;;;;;5051513;28;20421;-41
2023/01/23 06:16:46;;;;;;;39.83;20.73;;;2.30;99.90;;;;;;5060459;28;20025;-41
2023/01/23 06:19:12;;;;;;;67.07;26.48;;;2.30;99.90;;;;;;5067573;28;20036;-41
2023/01/23 06:21:37;;;;;;;43.28;19.58;;;2.30;99.90;;;;;;5053131;28;20341;-42
2023/01/23 06:24:03;;;;;;;39.45;18.92;;;2.30;99.90;;;;;;5036267;28;20064;-39
2023/01/23 06:26:28;;;;;;;38.10;18.80;;;2.30;99.90;;;;;;5038216;28;20021;-41
2023/01/23 06:28:54;;;;;;;40.33;20.48;;;2.30;99.90;;;;;;5040737;28;20116;-41
2023/01/23 06:31:20;;;;;;;37.85;18.83;;;2.20;99.90;;;;;;5043660;28;20033;-41
2023/01/23 06:33:50;;;;;;;36.65;18.63;;;2.20;99.90;;;;;;5032374;28;20044;-41
2023/01/23 06:36:16;;;;;;;38.05;18.42;;;2.20;99.90;;;;;;5030219;28;20122;-42
2023/01/23 06:38:41;;;;;;;37.88;18.05;;;2.20;99.90;;;;;;5029545;28;20514;-42
2023/01/23 06:41:08;;;;;;;39.38;18.58;;;2.20;99.90;;;;;;5029079;28;20091;-42
2023/01/23 06:43:34;;;;;;;38.00;18.30;;;2.20;99.90;;;;;;5027176;28;20030;-41
2023/01/23 06:45:59;;;;;;;43.30;19.70;;;2.20;99.90;;;;;;5051150;28;20028;-42
2023/01/23 06:48:25;;;;;;;45.72;22.50;;;2.20;99.90;;;;;;5066467;28;20563;-41
2023/01/23 06:50:50;;;;;;;42.13;20.50;;;2.30;99.90;;;;;;5068499;28;20466;-41
2023/01/23 06:53:16;;;;;;;44.90;20.77;;;2.30;99.90;;;;;;5068631;28;20425;-42
2023/01/23 06:55:42;;;;;;;37.25;20.02;;;2.30;99.90;;;;;;5068105;28;20041;-42
2023/01/23 06:58:08;;;;;;;41.40;18.45;;;2.20;99.90;;;;;;5068366;28;20146;-42
2023/01/23 07:00:33;;;;;;;44.40;21.08;;;2.20;99.90;;;;;;5067244;28;20116;-42
2023/01/23 07:03:02;;;;;;;40.83;19.67;;;2.20;99.90;;;;;;5068286;28;20028;-41
2023/01/23 07:05:28;;;;;;;41.90;20.60;;;2.20;99.90;;;;;;5067923;28;20027;-41
2023/01/23 07:07:54;;;;;;;50.78;21.73;;;2.20;99.90;;;;;;5066974;28;20036;-41
2023/01/23 07:10:21;;;;;;;45.55;20.77;;;2.30;99.90;;;;;;5068668;28;20028;-41
2023/01/23 07:12:47;;;;;;;46.55;19.33;;;2.30;99.90;;;;;;5060372;28;20036;-41
2023/01/23 07:15:13;;;;;;;42.67;20.30;;;2.20;99.90;;;;;;5043964;28;20025;-41
2023/01/23 07:17:38;;;;;;;49.88;21.42;;;2.30;99.90;;;;;;5046112;28;20021;-41
2023/01/23 07:20:04;;;;;;;44.95;20.25;;;2.30;99.90;;;;;;5036950;28;20303;-41
2023/01/23 07:22:30;;;;;;;42.72;20.30;;;2.30;99.90;;;;;;5036827;28;20378;-41
2023/01/23 07:24:55;;;;;;;46.95;20.95;;;2.30;99.90;;;;;;5039380;28;20025;-41
2023/01/23 07:27:21;;;;;;;46.90;21.38;;;2.30;99.90;;;;;;5031719;28;20041;-41
2023/01/23 07:29:46;;;;;;;42.92;19.60;;;2.30;99.90;;;;;;5046870;28;20059;-40
2023/01/23 07:32:12;;;;;;;40.42;20.00;;;2.30;99.90;;;;;;5038616;28;20092;-41
2023/01/23 07:34:38;;;;;;;41.58;20.27;;;2.30;99.90;;;;;;5037387;28;20025;-41
2023/01/23 07:37:03;;;;;;;45.38;21.42;;;2.30;99.90;;;;;;5036336;28;20375;-40
2023/01/23 07:39:29;;;;;;;44.72;20.63;;;2.30;99.90;;;;;;5038019;28;20017;-41
2023/01/23 07:41:54;;;;;;;42.75;19.88;;;2.20;99.90;;;;;;5038981;28;20482;-41
2023/01/23 07:44:21;;;;;;;39.88;20.38;;;2.30;99.90;;;;;;5035853;28;20065;-41
2023/01/23 07:46:48;;;;;;;48.38;22.73;;;2.30;99.90;;;;;;5035100;28;20018;-41
2023/01/23 07:49:14;;;;;;;51.67;21.08;;;2.30;99.90;;;;;;5040752;28;20080;-40
2023/01/23 07:51:40;;;;;;;48.88;21.58;;;2.30;99.90;;;;;;5040232;28;20067;-40
2023/01/23 07:54:06;;;;;;;42.58;19.70;;;2.30;99.90;;;;;;5035991;28;20033;-41
2023/01/23 07:56:32;;;;;;;51.53;21.98;;;2.30;99.90;;;;;;5038188;28;20029;-41
2023/01/23 07:58:58;;;;;;;44.42;21.17;;;2.30;99.90;;;;;;5038411;28;20027;-42
2023/01/23 08:01:23;;;;;;;48.47;22.38;;;2.30;99.90;;;;;;5041372;28;20025;-42
2023/01/23 08:03:49;;;;;;;44.30;20.55;;;2.30;99.90;;;;;;5039908;28;20378;-41
2023/01/23 08:06:14;;;;;;;56.38;22.70;;;2.30;99.90;;;;;;5041773;28;20029;-40
2023/01/23 08:08:40;;;;;;;55.15;23.92;;;2.40;99.90;;;;;;5039284;28;20025;-41
2023/01/23 08:11:09;;;;;;;48.95;22.38;;;2.30;99.90;;;;;;5044734;28;20104;-41
2023/01/23 08:13:34;;;;;;;48.58;21.73;;;2.30;99.90;;;;;;5044659;28;20022;-41
2023/01/23 08:16:00;;;;;;;48.55;21.67;;;2.30;99.90;;;;;;5039473;28;20029;-41
2023/01/23 08:18:28;;;;;;;50.97;22.63;;;2.30;99.90;;;;;;5042181;28;20021;-42
2023/01/23 08:21:01;;;;;;;53.67;23.80;;;2.30;99.90;;;;;;5041328;28;20024;-41
2023/01/23 08:23:29;;;;;;;55.03;22.40;;;2.30;99.90;;;;;;5040574;28;20032;-41
2023/01/23 08:25:57;;;;;;;64.78;23.13;;;2.30;99.90;;;;;;5037907;28;20076;-41
2023/01/23 08:28:22;;;;;;;52.97;24.45;;;2.30;99.90;;;;;;5036909;28;20087;-41
2023/01/23 08:30:48;;;;;;;52.85;21.70;;;2.30;99.90;;;;;;5041753;28;20119;-41
2023/01/23 08:33:14;;;;;;;55.45;23.40;;;2.30;99.90;;;;;;5045189;28;20044;-41
2023/01/23 08:35:51;;;;;;;52.38;21.38;;;2.30;99.90;;;;;;5047478;28;20454;-41
2023/01/23 08:38:19;;;;;;;52.78;21.40;;;2.40;99.90;;;;;;5051483;28;20021;-41
2023/01/23 08:40:46;;;;;;;54.55;21.67;;;2.40;99.90;;;;;;5056376;28;20024;-41
2023/01/23 08:43:12;;;;;;;54.45;22.92;;;2.40;99.90;;;;;;5067207;28;20162;-41
2023/01/23 08:45:52;;;;;;;57.28;22.75;;;2.40;99.90;;;;;;5070282;28;20029;-41
2023/01/23 08:48:18;;;;;;;62.05;23.17;;;2.40;99.90;;;;;;5069868;28;20025;-42
2023/01/23 08:50:44;;;;;;;54.65;21.95;;;2.40;99.90;;;;;;5071110;28;20037;-41
2023/01/23 08:53:11;;;;;;;61.05;22.17;;;2.40;99.90;;;;;;5070911;28;20036;-41
2023/01/23 08:55:37;;;;;;;52.60;21.83;;;2.40;99.90;;;;;;5070559;28;20496;-42
2023/01/23 08:58:04;;;;;;;52.05;22.05;;;2.40;99.90;;;;;;5070698;28;20016;-41
2023/01/23 09:00:30;;;;;;;50.90;20.88;;;2.40;99.90;;;;;;5069707;28;20470;-41
2023/01/23 09:02:58;;;;;;;51.78;21.60;;;2.50;99.90;;;;;;5069503;28;20034;-40
2023/01/23 09:05:24;;;;;;;51.45;21.88;;;2.50;99.90;;;;;;5070266;28;20028;-41
2023/01/23 09:07:50;;;;;;;52.15;20.83;;;2.50;99.90;;;;;;5070863;28;20024;-41
2023/01/23 09:10:15;;;;;;;54.28;22.35;;;2.50;99.90;;;;;;5063356;28;20099;-41
2023/01/23 09:12:42;;;;;;;45.05;22.30;;;2.50;99.90;;;;;;5062833;28;20086;-42
2023/01/23 09:15:08;;;;;;;53.03;22.60;;;2.60;99.90;;;;;;5068597;28;20447;-42
2023/01/23 09:17:34;;;;;;;45.97;21.38;;;2.60;99.90;;;;;;5070942;28;20024;-41
2023/01/23 09:20:00;;;;;;;49.78;21.98;;;2.60;99.90;;;;;;5070907;28;20017;-41
2023/01/23 09:22:26;;;;;;;53.17;21.73;;;2.60;99.90;;;;;;5070107;28;20035;-41
2023/01/23 09:24:51;;;;;;;54.85;22.00;;;2.50;99.90;;;;;;5069981;28;20116;-41
2023/01/23 09:27:17;;;;;;;53.70;21.48;;;2.50;99.90;;;;;;5070294;28;20029;-41
2023/01/23 09:29:43;;;;;;;50.38;21.30;;;2.50;99.90;;;;;;5070200;28;20107;-42
2023/01/23 09:32:08;;;;;;;45.72;19.33;;;2.50;99.90;;;;;;5070387;28;20425;-41
2023/01/23 09:34:34;;;;;;;41.53;17.88;;;2.60;99.90;;;;;;5069821;28;20499;-42
2023/01/23 09:36:59;;;;;;;44.58;19.33;;;2.60;99.90;;;;;;5057958;28;20051;-41
2023/01/23 09:39:25;;;;;;;45.75;20.73;;;2.60;99.90;;;;;;5048675;28;20022;-41
2023/01/23 09:41:51;;;;;;;44.50;20.35;;;2.70;99.90;;;;;;5062077;28;20115;-41
2023/01/23 09:44:37;;;;;;;43.05;19.00;;;2.60;99.90;;;;;;5069634;28;20025;-41
2023/01/23 09:47:43;;;;;;;43.35;19.40;;;2.60;99.90;;;;;;5052967;28;20124;-41
2023/01/23 09:50:24;;;;;;;45.42;21.95;;;2.70;99.90;;;;;;5048310;28;20044;-42
2023/01/23 09:53:00;;;;;;;45.65;19.80;;;2.70;99.90;;;;;;5050025;28;20029;-41
2023/01/23 09:56:03;;;;;;;46.08;20.33;;;2.70;99.90;;;;;;5049566;28;20029;-41
2023/01/23 09:59:01;;;;;;;45.42;21.50;;;2.70;99.90;;;;;;5049373;28;20075;-41
2023/01/23 10:01:29;;;;;;;49.03;21.33;;;2.80;99.90;;;;;;5032460;28;20040;-41
2023/01/23 10:03:56;;;;;;;44.92;19.98;;;2.80;99.90;;;;;;5049451;28;20046;-41
2023/01/23 10:06:28;;;;;;;44.30;20.63;;;2.80;99.90;;;;;;5049300;28;20032;-42
2023/01/23 10:09:09;;;;;;;47.75;21.77;;;2.90;99.90;;;;;;5049359;28;20106;-41
2023/01/23 10:11:47;;;;;;;44.75;20.15;;;2.90;99.90;;;;;;5060366;28;20021;-41
2023/01/23 10:14:34;;;;;;;43.85;18.80;;;2.90;99.90;;;;;;5068993;28;20252;-41
2023/01/23 10:17:12;;;;;;;40.55;19.33;;;2.80;99.90;;;;;;5069500;28;20568;-42
2023/01/23 10:19:38;;;;;;;49.25;20.88;;;2.80;99.90;;;;;;5069492;28;20025;-41
2023/01/23 10:22:26;;;;;;;54.05;21.50;;;2.80;99.90;;;;;;5069065;28;20282;-41
2023/01/23 10:24:54;;;;;;;51.75;22.27;;;2.80;99.90;;;;;;5068979;28;20031;-41
2023/01/23 10:27:37;;;;;;;49.13;20.27;;;2.70;99.90;;;;;;5069534;28;20089;-41
2023/01/23 10:30:32;;;;;;;45.38;20.30;;;2.70;99.90;;;;;;5069434;28;20485;-41
2023/01/23 10:33:07;;;;;;;39.05;18.00;;;2.70;99.90;;;;;;5069825;28;20099;-41
2023/01/23 10:35:46;;;;;;;46.97;20.42;;;2.70;99.90;;;;;;5069635;28;20025;-42
2023/01/23 10:38:23;;;;;;;50.67;20.92;;;2.70;99.90;;;;;;5068729;28;20094;-41
2023/01/23 10:43:34;;;;;;;51.28;21.55;;;2.70;99.90;;;;;;5055522;28;20036;-41
2023/01/23 10:46:07;;;;;;;45.20;20.17;;;2.70;99.90;;;;;;5047938;28;20021;-41
2023/01/23 10:48:39;;;;;;;55.47;22.58;;;2.70;99.90;;;;;;5047533;28;20033;-41
2023/01/23 10:51:27;;;;;;;46.40;22.00;;;2.70;99.90;;;;;;5048846;28;20035;-41
2023/01/23 10:54:29;;;;;;;51.35;21.23;;;2.70;99.90;;;;;;5048661;28;20055;-41
2023/01/23 10:57:01;;;;;;;43.38;21.23;;;2.70;99.90;;;;;;5048321;28;20048;-41
2023/01/23 10:59:38;;;;;;;55.92;23.90;;;2.80;99.90;;;;;;5048179;28;20401;-41
2023/01/23 11:02:12;;;;;;;50.03;22.88;;;2.80;99.90;;;;;;5041325;28;20162;-41
2023/01/23 11:04:43;;;;;;;51.35;20.70;;;2.80;99.90;;;;;;5047410;28;20024;-41
2023/01/23 11:07:13;;;;;;;51.28;21.95;;;2.80;99.90;;;;;;5042930;28;20036;-41
2023/01/23 11:10:13;;;;;;;50.85;20.33;;;2.80;99.90;;;;;;5049789;28;20033;-41
2023/01/23 11:12:48;;;;;;;44.45;19.60;;;2.80;99.90;;;;;;5058816;28;20100;-41
2023/01/23 11:15:19;;;;;;;43.58;19.88;;;2.90;99.90;;;;;;5067713;28;20021;-42
2023/01/23 11:17:45;;;;;;;53.10;21.63;;;2.90;99.90;;;;;;5068679;28;20020;-41
2023/01/23 11:20:32;;;;;;;49.85;21.38;;;2.90;99.90;;;;;;5068411;28;20027;-41
2023/01/23 11:23:16;;;;;;;45.85;19.50;;;2.90;99.90;;;;;;5068205;28;20048;-42
2023/01/23 11:25:41;;;;;;;49.10;20.90;;;3.00;99.90;;;;;;5062105;28;20060;-41
2023/01/23 11:28:28;;;;;;;49.20;21.48;;;3.00;99.90;;;;;;5039629;28;20068;-41
2023/01/23 11:31:08;;;;;;;53.72;23.95;;;3.00;99.90;;;;;;5037596;28;20075;-41
2023/01/23 11:33:41;;;;;;;50.88;21.08;;;3.10;99.90;;;;;;5038368;28;20028;-41
2023/01/23 11:36:16;;;;;;;48.25;22.52;;;3.00;99.90;;;;;;5040599;28;20087;-41
2023/01/23 11:39:02;;;;;;;43.33;19.33;;;3.00;99.90;;;;;;5041593;28;20026;-41
2023/01/23 11:41:33;;;;;;;55.38;23.23;;;3.00;99.90;;;;;;5045661;28;20013;-41
2023/01/23 11:44:06;;;;;;;50.83;22.30;;;2.90;99.90;;;;;;5040777;28;20588;-41
2023/01/23 11:46:50;;;;;;;47.85;20.88;;;2.90;99.90;;;;;;5030072;28;20027;-41
2023/01/23 11:49:40;;;;;;;46.80;22.25;;;2.90;99.90;;;;;;5041439;28;20433;-41
2023/01/23 11:52:27;;;;;;;46.55;21.40;;;2.90;99.90;;;;;;5040553;28;20033;-41
2023/01/23 11:55:30;;;;;;;49.20;20.48;;;3.00;99.90;;;;;;5042198;28;20063;-40
2023/01/23 11:58:23;;;;;;;50.83;22.27;;;2.90;99.90;;;;;;5048422;28;20028;-40
2023/01/23 12:01:30;;;;;;;50.67;20.85;;;2.90;99.90;;;;;;5042950;28;20013;-41
2023/01/23 12:04:27;;;;;;;49.13;21.50;;;2.90;99.90;;;;;;4981444;28;20030;-41
2023/01/23 12:07:08;;;;;;;50.42;21.95;;;2.90;99.90;;;;;;4980932;28;20676;-41
2023/01/23 12:10:00;;;;;;;51.75;20.80;;;3.00;99.90;;;;;;5031747;28;20085;-42
2023/01/23 12:12:38;;;;;;;51.92;24.05;;;3.00;99.90;;;;;;5043948;28;20051;-41
2023/01/23 12:15:25;;;;;;;53.67;23.25;;;3.00;99.90;;;;;;5041188;28;20023;-41
2023/01/23 12:18:28;;;;;;;53.47;22.75;;;3.00;99.90;;;;;;5042957;28;20093;-41
2023/01/23 12:21:11;;;;;;;54.47;23.92;;;2.90;99.90;;;;;;5043400;28;20029;-41
2023/01/23 12:23:47;;;;;;;53.40;22.67;;;2.80;99.90;;;;;;5043145;28;20547;-41
2023/01/23 12:26:18;;;;;;;53.88;23.58;;;2.90;99.90;;;;;;5042491;28;20117;-42
2023/01/23 12:29:17;;;;;;;55.53;23.85;;;2.90;99.90;;;;;;5045683;28;20102;-42
2023/01/23 12:32:10;;;;;;;55.30;23.38;;;2.90;99.90;;;;;;5041670;28;20108;-40
2023/01/23 12:35:02;;;;;;;51.33;23.25;;;2.90;99.90;;;;;;5041088;28;20026;-41
2023/01/23 12:37:42;;;;;;;48.92;22.17;;;3.00;99.90;;;;;;5041964;28;20018;-42
2023/01/23 12:40:29;;;;;;;60.15;24.92;;;3.00;99.90;;;;;;5044430;28;20095;-41
2023/01/23 12:43:11;;;;;;;59.17;23.60;;;3.00;99.90;;;;;;5043578;28;20017;-41
2023/01/23 12:45:44;;;;;;;121.03;57.33;;;3.00;99.90;;;;;;5041817;28;20017;-41
2023/01/23 12:48:13;;;;;;;169.18;77.63;;;3.00;99.90;;;;;;5042109;28;20029;-41
2023/01/23 12:50:46;;;;;;;64.63;30.27;;;3.00;99.90;;;;;;5040738;28;20468;-41
2023/01/23 12:53:17;;;;;;;53.30;22.83;;;3.10;99.90;;;;;;5041476;28;20029;-40
2023/01/23 12:55:58;;;;;;;49.85;23.17;;;3.00;99.90;;;;;;5039261;28;20036;-40
2023/01/23 12:58:27;;;;;;;51.95;23.00;;;3.00;99.90;;;;;;5042646;28;20028;-41